Time;durP1;ratioP1;P1;durP2;ratioP2;P2;SDS_P1;SDS_P2;PMS_P1;PMS_P2;Temp;Humidity;BMP_temperature;BMP_pressure;BME280_temperature;BME280_humidity;BME280_pressure;Samples;Min_cycle;Max_cycle;Signal;HPM_P1;HPM_P2
2021/08/04 00:01:39;;;;;;;4.60;4.00;;;;;;;13.73;97.66;96019.34;3589756;39;20065;-58
2021/08/04 00:04:07;;;;;;;7.45;4.70;;;;;;;13.72;98.05;96017.78;3581833;39;20050;-59
2021/08/04 00:06:35;;;;;;;4.32;3.90;;;;;;;13.69;98.89;96013.00;3577408;39;20051;-59
2021/08/04 00:09:03;;;;;;;4.22;3.75;;;;;;;13.66;98.22;96009.03;3577429;39;20046;-66
2021/08/04 00:11:31;;;;;;;5.07;3.95;;;;;;;13.69;97.20;96013.00;3603433;39;20061;-58
2021/08/04 00:14:00;;;;;;;9.45;4.50;;;;;;;13.64;97.08;96005.06;3604081;39;20043;-59
2021/08/04 00:16:28;;;;;;;5.05;4.38;;;;;;;13.61;97.62;95995.00;3591265;39;20052;-58
2021/08/04 00:18:56;;;;;;;4.43;3.55;;;;;;;13.62;96.72;95999.25;3593347;39;20585;-58
2021/08/04 00:21:25;;;;;;;4.07;3.70;;;;;;;13.60;97.21;95988.91;3604426;39;20040;-58
2021/08/04 00:23:53;;;;;;;4.45;3.03;;;;;;;13.55;96.32;95985.50;3587350;39;20054;-58
2021/08/04 00:26:20;;;;;;;9.25;4.18;;;;;;;13.51;97.36;95994.00;3583054;39;20047;-58
2021/08/04 00:28:49;;;;;;;4.07;3.65;;;;;;;13.50;96.25;95991.63;3592732;39;20090;-58
2021/08/04 00:31:17;;;;;;;5.03;4.38;;;;;;;13.46;97.75;95994.03;3590804;39;20056;-58
2021/08/04 00:33:45;;;;;;;4.13;3.72;;;;;;;13.42;97.70;95986.88;3601395;39;20062;-58
2021/08/04 00:36:12;;;;;;;6.38;4.13;;;;;;;13.42;97.20;95998.28;3590188;39;20102;-58
2021/08/04 00:38:41;;;;;;;5.75;3.97;;;;;;;13.43;96.94;95999.06;3587984;39;20058;-58
2021/08/04 00:41:09;;;;;;;8.07;3.78;;;;;;;13.41;97.19;95996.69;3577019;39;20047;-57
2021/08/04 00:43:37;;;;;;;6.13;4.03;;;;;;;13.44;98.33;95990.06;3593842;39;20063;-58
2021/08/04 00:46:05;;;;;;;5.15;3.70;;;;;;;13.43;97.91;95994.56;3601974;39;20064;-59
2021/08/04 00:48:32;;;;;;;8.43;3.85;;;;;;;13.47;98.46;95992.97;3592483;39;20380;-59
2021/08/04 00:51:00;;;;;;;5.30;4.80;;;;;;;13.50;98.79;95991.63;3594370;39;20725;-59
2021/08/04 00:53:29;;;;;;;10.68;5.38;;;;;;;13.49;98.95;95990.81;3599532;39;20051;-59
2021/08/04 00:56:00;;;;;;;9.50;4.13;;;;;;;13.48;99.73;95994.53;3593519;39;20323;-59
2021/08/04 00:58:34;;;;;;;4.50;4.10;;;;;;;13.49;99.62;95998.78;3579454;39;20051;-59
2021/08/04 01:01:12;;;;;;;6.68;3.75;;;;;;;13.50;98.31;95989.75;3598451;39;20051;-59
2021/08/04 01:03:48;;;;;;;8.45;4.65;;;;;;;13.52;97.20;95982.34;3590005;39;20051;-59
2021/08/04 01:06:44;;;;;;;4.07;3.70;;;;;;;13.56;96.66;95974.63;3577517;39;20043;-58
2021/08/04 01:09:12;;;;;;;8.15;4.57;;;;;;;13.61;96.82;95981.75;3584572;39;20404;-58
2021/08/04 01:11:46;;;;;;;5.63;4.35;;;;;;;13.59;98.37;95979.38;3585020;39;20053;-58
2021/08/04 01:14:19;;;;;;;7.70;4.63;;;;;;;13.62;97.93;95988.63;3597651;39;20464;-58
2021/08/04 01:16:48;;;;;;;8.18;4.55;;;;;;;13.64;97.38;95983.88;3604523;39;20028;-58
2021/08/04 01:19:41;;;;;;;5.95;3.97;;;;;;;13.62;96.31;95967.44;3589237;39;20582;-58
2021/08/04 01:22:25;;;;;;;4.80;4.40;;;;;;;13.63;96.61;95977.78;3587863;39;20529;-59
2021/08/04 01:25:04;;;;;;;4.40;3.80;;;;;;;13.59;96.54;95983.91;3575601;39;20048;-59
2021/08/04 01:27:33;;;;;;;6.30;3.75;;;;;;;13.60;97.98;95990.78;3596961;39;20055;-59
2021/08/04 01:30:02;;;;;;;5.55;4.57;;;;;;;13.60;97.83;95980.97;3603336;39;20050;-59
2021/08/04 01:32:30;;;;;;;8.48;4.47;;;;;;;13.61;98.13;95979.09;3593885;39;20546;-59
2021/08/04 01:35:01;;;;;;;8.00;4.57;;;;;;;13.60;97.34;95973.03;3603475;39;20056;-59
2021/08/04 01:37:31;;;;;;;6.15;4.55;;;;;;;13.63;95.97;95979.63;3590126;39;20051;-59
2021/08/04 01:40:00;;;;;;;4.03;3.72;;;;;;;13.64;96.84;95978.56;3578761;39;20056;-59
2021/08/04 01:42:32;;;;;;;5.97;3.95;;;;;;;13.67;97.91;95981.44;3590365;39;20056;-59
2021/08/04 01:45:01;;;;;;;5.63;4.20;;;;;;;13.70;98.18;95988.09;3603151;39;20055;-59
2021/08/04 01:47:30;;;;;;;6.55;3.80;;;;;;;13.73;97.23;95986.75;3582058;39;20072;-59
2021/08/04 01:49:59;;;;;;;5.07;4.07;;;;;;;13.76;97.47;96000.22;3590013;39;20053;-58
2021/08/04 01:52:27;;;;;;;8.73;4.32;;;;;;;13.77;97.00;96004.47;3592181;39;20089;-59
2021/08/04 01:54:56;;;;;;;4.40;4.03;;;;;;;13.80;97.56;96011.88;3591550;39;20059;-58
2021/08/04 01:57:23;;;;;;;5.43;4.22;;;;;;;13.79;97.41;96014.78;3593163;39;20431;-60
2021/08/04 01:59:52;;;;;;;7.22;4.10;;;;;;;13.76;99.00;96025.97;3582649;39;20051;-58
2021/08/04 02:02:21;;;;;;;5.40;3.75;;;;;;;13.75;97.62;96030.47;3588295;39;20047;-58
2021/08/04 02:04:53;;;;;;;5.07;4.57;;;;;;;13.72;97.44;96038.97;3583532;39;20031;-58
2021/08/04 02:07:56;;;;;;;9.73;4.20;;;;;;;13.66;100.00;96050.66;3583702;39;20632;-58
2021/08/04 02:10:37;;;;;;;7.53;4.90;;;;;;;13.58;100.00;96065.25;3577367;39;20070;-58
2021/08/04 02:13:32;;;;;;;5.53;4.80;;;;;;;13.60;100.00;96071.09;3586786;39;20054;-59
2021/08/04 02:16:25;;;;;;;9.68;6.55;;;;;;;13.56;100.00;96071.91;3593329;39;20052;-59
2021/08/04 02:19:19;;;;;;;9.02;6.40;;;;;;;13.52;100.00;96071.66;3591710;39;20062;-60
2021/08/04 02:21:57;;;;;;;10.35;7.55;;;;;;;13.49;100.00;96059.72;3594332;39;20079;-59
2021/08/04 02:24:29;;;;;;;8.65;6.70;;;;;;;13.48;100.00;96055.47;3585222;39;20056;-60
2021/08/04 02:27:00;;;;;;;7.55;6.85;;;;;;;13.45;100.00;96055.22;3594669;39;20032;-59
2021/08/04 02:29:32;;;;;;;8.00;6.68;;;;;;;13.45;100.00;96060.53;3587726;39;20052;-59
2021/08/04 02:32:00;;;;;;;8.05;6.25;;;;;;;13.47;100.00;96051.28;3600068;39;20293;-60
2021/08/04 02:34:28;;;;;;;7.75;5.88;;;;;;;13.48;100.00;96039.59;3602428;39;20047;-60
2021/08/04 02:36:56;;;;;;;8.25;5.85;;;;;;;13.50;100.00;96026.06;3601879;39;20063;-59
2021/08/04 02:39:24;;;;;;;8.10;6.57;;;;;;;13.49;100.00;96024.50;3582411;39;20043;-61
2021/08/04 02:41:53;;;;;;;9.18;7.55;;;;;;;13.46;100.00;96023.19;3601049;39;20056;-59
2021/08/04 02:44:21;;;;;;;11.35;7.93;;;;;;;13.41;100.00;96025.84;3602593;39;20047;-61
2021/08/04 02:46:50;;;;;;;9.75;8.18;;;;;;;13.32;100.00;96025.56;3592229;39;20172;-59
2021/08/04 02:49:19;;;;;;;11.48;9.10;;;;;;;13.37;100.00;96038.00;3589256;39;20043;-59
2021/08/04 02:51:47;;;;;;;10.70;7.65;;;;;;;13.37;100.00;96043.31;3593976;39;20062;-59
2021/08/04 02:54:18;;;;;;;12.27;8.50;;;;;;;13.38;100.00;96039.59;3591434;39;20371;-61
2021/08/04 02:56:46;;;;;;;9.25;8.30;;;;;;;13.39;100.00;96051.78;3590173;39;20458;-60
2021/08/04 02:59:14;;;;;;;12.98;9.75;;;;;;;13.37;100.00;96057.34;3594670;39;20248;-60
2021/08/04 03:01:42;;;;;;;14.60;9.85;;;;;;;13.33;100.00;96050.22;3587215;39;20056;-60
2021/08/04 03:04:11;;;;;;;10.73;8.55;;;;;;;13.38;100.00;96044.88;3592877;39;20201;-60
2021/08/04 03:06:38;;;;;;;8.88;7.90;;;;;;;13.43;100.00;96039.63;3584984;39;20060;-59
2021/08/04 03:09:06;;;;;;;10.73;8.10;;;;;;;13.47;100.00;96042.50;3591350;39;20041;-59
2021/08/04 03:11:34;;;;;;;12.05;8.40;;;;;;;13.48;100.00;96047.53;3590935;39;20409;-61
2021/08/04 03:14:02;;;;;;;10.73;9.48;;;;;;;13.52;100.00;96053.88;3593133;39;20045;-59
2021/08/04 03:16:30;;;;;;;10.85;9.68;;;;;;;13.55;100.00;96033.22;3591047;39;20059;-61
2021/08/04 03:18:58;;;;;;;9.50;7.88;;;;;;;13.55;100.00;96038.50;3579633;39;20062;-59
2021/08/04 03:21:28;;;;;;;10.52;9.45;;;;;;;13.55;100.00;96049.88;3581297;39;20086;-61
2021/08/04 03:23:58;;;;;;;13.10;10.38;;;;;;;13.58;100.00;96051.22;3591369;39;20405;-60
2021/08/04 03:26:26;;;;;;;17.33;9.88;;;;;;;13.62;100.00;96053.06;3591777;39;20054;-61
2021/08/04 03:28:54;;;;;;;13.65;11.75;;;;;;;13.61;100.00;96058.63;3587092;39;20415;-61
2021/08/04 03:31:22;;;;;;;8.38;7.55;;;;;;;13.61;100.00;96056.78;3591532;39;20078;-61
2021/08/04 03:33:50;;;;;;;8.70;7.72;;;;;;;13.63;100.00;96041.41;3590327;39;20051;-60
2021/08/04 03:36:18;;;;;;;10.10;6.70;;;;;;;13.63;100.00;96037.94;3582623;39;20050;-60
2021/08/04 03:38:45;;;;;;;9.07;7.25;;;;;;;13.60;100.00;96033.97;3590004;39;20050;-61
2021/08/04 03:41:13;;;;;;;9.90;6.57;;;;;;;13.60;100.00;96041.16;3588881;39;20052;-61
2021/08/04 03:43:41;;;;;;;8.88;7.05;;;;;;;13.61;100.00;96040.06;3591344;39;20046;-60
2021/08/04 03:46:09;;;;;;;7.75;6.95;;;;;;;13.59;100.00;96035.03;3576337;39;20058;-61
2021/08/04 03:48:38;;;;;;;8.50;6.85;;;;;;;13.56;100.00;96027.63;3592310;39;20066;-60
2021/08/04 03:51:05;;;;;;;9.70;7.93;;;;;;;13.61;100.00;96040.06;3592728;39;20052;-61
2021/08/04 03:53:33;;;;;;;8.32;6.55;;;;;;;13.62;100.00;96044.31;3586611;39;20043;-61
2021/08/04 03:56:01;;;;;;;8.00;7.18;;;;;;;13.63;100.00;96046.69;3589540;39;20048;-60
2021/08/04 03:58:28;;;;;;;9.85;7.10;;;;;;;13.67;100.00;96052.25;3588198;39;20055;-60
2021/08/04 04:00:56;;;;;;;7.75;6.80;;;;;;;13.67;100.00;96044.28;3576187;39;20055;-61
2021/08/04 04:03:24;;;;;;;10.93;8.65;;;;;;;13.68;100.00;96045.88;3587945;39;20452;-61
2021/08/04 04:05:52;;;;;;;11.05;8.23;;;;;;;13.68;100.00;96051.97;3591104;39;20054;-60
2021/08/04 04:08:20;;;;;;;12.80;9.00;;;;;;;13.70;100.00;96049.06;3594257;39;20055;-61
2021/08/04 04:10:48;;;;;;;9.10;8.20;;;;;;;13.70;100.00;96049.06;3588851;39;20050;-61
2021/08/04 04:13:15;;;;;;;14.38;9.98;;;;;;;13.75;100.00;96058.84;3589170;39;20044;-61
2021/08/04 04:15:43;;;;;;;9.90;8.90;;;;;;;13.76;100.00;96055.91;3589455;39;20443;-61
2021/08/04 04:18:11;;;;;;;9.85;8.85;;;;;;;13.82;100.00;96051.38;3571506;39;20070;-61
2021/08/04 04:20:38;;;;;;;10.55;9.52;;;;;;;13.86;100.00;96041.81;3578271;39;20308;-61
2021/08/04 04:23:06;;;;;;;12.35;8.43;;;;;;;13.92;100.00;96042.59;3578228;39;20059;-60
2021/08/04 04:25:34;;;;;;;9.02;8.13;;;;;;;13.99;100.00;96043.06;3582083;39;20273;-61
2021/08/04 04:28:02;;;;;;;8.45;6.70;;;;;;;14.01;100.00;96040.94;3590450;39;20056;-61
2021/08/04 04:30:30;;;;;;;9.38;8.57;;;;;;;14.03;100.00;96045.97;3582424;40;20312;-61
2021/08/04 04:32:58;;;;;;;12.88;9.98;;;;;;;14.01;100.00;96046.22;3582847;39;20062;-60
2021/08/04 04:35:26;;;;;;;11.27;10.18;;;;;;;14.03;100.00;96049.41;3582634;40;20304;-61
2021/08/04 04:37:54;;;;;;;14.43;11.70;;;;;;;14.04;100.00;96058.97;3588438;39;20040;-60
2021/08/04 04:40:22;;;;;;;11.57;10.52;;;;;;;13.99;100.00;96051.00;3573850;39;20442;-60
2021/08/04 04:42:49;;;;;;;12.38;11.07;;;;;;;14.08;100.00;96051.25;3580081;39;20247;-60
2021/08/04 04:45:17;;;;;;;10.50;9.52;;;;;;;14.10;100.00;96049.09;3587891;39;20095;-60
2021/08/04 04:47:45;;;;;;;10.90;9.80;;;;;;;14.19;100.00;96058.06;3582097;39;20557;-60
2021/08/04 04:50:12;;;;;;;17.17;13.15;;;;;;;14.26;100.00;96063.06;3590190;39;20052;-61
2021/08/04 04:52:42;;;;;;;11.20;8.48;;;;;;;14.29;100.00;96058.00;3571338;39;20557;-60
2021/08/04 04:55:12;;;;;;;14.00;10.57;;;;;;;14.34;100.00;96056.38;3583343;39;20056;-61
2021/08/04 04:57:39;;;;;;;11.43;9.43;;;;;;;14.38;100.00;96049.47;3579200;40;20074;-60
2021/08/04 05:00:08;;;;;;;16.30;11.02;;;;;;;14.50;100.00;96044.59;3592116;39;20049;-60
2021/08/04 05:02:40;;;;;;;11.18;9.38;;;;;;;14.64;100.00;96046.63;3589324;39;20041;-61
2021/08/04 05:05:11;;;;;;;9.75;8.80;;;;;;;14.81;100.00;96043.59;3582164;39;20054;-60
2021/08/04 05:07:39;;;;;;;8.77;7.88;;;;;;;14.93;100.00;96035.22;3576579;39;20050;-60
2021/08/04 05:10:08;;;;;;;12.75;8.05;;;;;;;15.47;100.00;96035.97;3588044;39;20032;-61
2021/08/04 05:12:35;;;;;;;8.60;7.13;;;;;;;16.03;100.00;96033.72;3585601;39;20051;-62
2021/08/04 05:15:05;;;;;;;10.18;9.15;;;;;;;16.77;97.88;96038.47;3590548;39;20051;-60
2021/08/04 05:17:32;;;;;;;9.52;7.95;;;;;;;16.73;97.88;96038.25;3603118;39;20058;-60
2021/08/04 05:20:00;;;;;;;8.32;7.45;;;;;;;16.69;97.15;96044.44;3605594;39;20320;-61
2021/08/04 05:22:28;;;;;;;7.40;6.15;;;;;;;16.73;92.36;96038.25;3594278;39;20075;-61
2021/08/04 05:24:56;;;;;;;7.15;5.82;;;;;;;16.74;92.71;96041.69;3589865;39;20058;-61
2021/08/04 05:27:24;;;;;;;7.90;6.35;;;;;;;16.82;91.67;96032.25;3592855;39;20051;-62
2021/08/04 05:29:52;;;;;;;6.32;5.50;;;;;;;16.84;90.33;96032.75;3605261;39;20335;-61
2021/08/04 05:32:19;;;;;;;6.22;5.63;;;;;;;16.79;91.41;96030.97;3591932;39;20340;-62
2021/08/04 05:34:47;;;;;;;5.25;4.78;;;;;;;16.80;89.67;96037.84;3590194;39;20040;-61
2021/08/04 05:37:15;;;;;;;6.20;5.18;;;;;;;16.88;87.93;96034.53;3593994;39;20054;-61
2021/08/04 05:39:42;;;;;;;6.97;6.30;;;;;;;17.02;87.39;96039.13;3597259;39;20043;-61
2021/08/04 05:42:13;;;;;;;6.97;5.85;;;;;;;17.14;87.79;96036.78;3590434;39;20052;-61
2021/08/04 05:44:41;;;;;;;9.80;6.50;;;;;;;17.25;88.26;96024.03;3599854;39;20052;-61
2021/08/04 05:47:08;;;;;;;8.57;5.53;;;;;;;17.38;85.02;96035.78;3602138;39;20036;-61
2021/08/04 05:49:36;;;;;;;6.57;5.97;;;;;;;17.50;83.02;96041.44;3581353;39;20063;-61
2021/08/04 05:52:04;;;;;;;8.02;7.30;;;;;;;17.58;87.60;96042.63;3594208;39;20053;-61
2021/08/04 05:54:35;;;;;;;7.35;5.82;;;;;;;17.65;83.13;96044.88;3593108;39;20320;-61
2021/08/04 05:57:03;;;;;;;4.80;4.03;;;;;;;17.71;81.92;96043.66;3578472;39;20047;-61
2021/08/04 05:59:30;;;;;;;5.07;4.57;;;;;;;17.70;81.53;96042.09;3583979;39;20466;-61
2021/08/04 06:01:58;;;;;;;4.63;4.22;;;;;;;17.59;78.76;96033.53;3603614;39;20653;-61
2021/08/04 06:04:26;;;;;;;5.88;5.30;;;;;;;17.45;82.17;96036.19;3584223;39;20061;-61
2021/08/04 06:06:54;;;;;;;5.70;5.18;;;;;;;17.39;84.46;96042.72;3602953;39;20312;-61
2021/08/04 06:09:22;;;;;;;7.43;6.07;;;;;;;17.43;85.04;96043.69;3589609;39;20416;-60
2021/08/04 06:11:49;;;;;;;9.43;5.05;;;;;;;17.49;83.91;96036.38;3586655;39;20058;-60
2021/08/04 06:14:17;;;;;;;4.07;3.45;;;;;;;17.55;80.13;96035.19;3593635;39;20046;-60
2021/08/04 06:16:45;;;;;;;5.65;4.70;;;;;;;17.61;80.69;96035.88;3590900;39;20320;-60
2021/08/04 06:19:13;;;;;;;4.40;4.10;;;;;;;17.72;79.41;96031.91;3580324;39;20047;-60
2021/08/04 06:21:41;;;;;;;5.95;4.63;;;;;;;17.91;80.92;96036.31;3583948;39;20061;-65
2021/08/04 06:24:08;;;;;;;7.40;5.93;;;;;;;17.92;83.35;96028.03;3581789;39;20056;-60
2021/08/04 06:26:36;;;;;;;7.43;3.95;;;;;;;17.86;80.19;96025.78;3593215;39;20070;-61
2021/08/04 06:29:05;;;;;;;5.38;4.88;;;;;;;17.82;80.52;96029.03;3601098;39;20480;-64
2021/08/04 06:31:32;;;;;;;5.20;4.32;;;;;;;17.87;83.51;96020.13;3583615;39;20501;-61
2021/08/04 06:34:00;;;;;;;6.50;5.22;;;;;;;17.95;83.55;96022.09;3588738;39;20055;-60
2021/08/04 06:36:28;;;;;;;4.82;4.35;;;;;;;18.06;78.41;96027.25;3592460;39;20049;-60
2021/08/04 06:38:56;;;;;;;5.72;5.22;;;;;;;18.23;78.54;96022.03;3591677;39;20044;-60
2021/08/04 06:41:23;;;;;;;5.88;4.53;;;;;;;18.47;80.88;96026.28;3592070;39;20202;-60
2021/08/04 06:43:51;;;;;;;5.03;4.63;;;;;;;18.59;78.95;96026.53;3588478;39;20053;-60
2021/08/04 06:46:18;;;;;;;4.40;4.00;;;;;;;18.64;76.21;96033.66;3592769;39;20055;-59
2021/08/04 06:48:46;;;;;;;8.05;4.68;;;;;;;18.72;74.18;96027.56;3601249;39;20077;-60
2021/08/04 06:51:16;;;;;;;7.38;4.47;;;;;;;18.87;74.64;96033.63;3602350;39;20085;-60
2021/08/04 06:53:49;;;;;;;5.05;4.53;;;;;;;19.02;73.57;96033.25;3587375;39;20052;-60
2021/08/04 06:56:17;;;;;;;6.38;4.80;;;;;;;19.18;71.63;96035.53;3583624;39;20062;-60
2021/08/04 06:58:45;;;;;;;6.00;3.75;;;;;;;19.13;73.53;96024.97;3602798;39;20054;-60
2021/08/04 07:01:13;;;;;;;6.95;4.07;;;;;;;19.21;73.33;96026.88;3602807;39;20686;-60
2021/08/04 07:03:41;;;;;;;6.80;4.07;;;;;;;19.27;74.73;96031.00;3590159;39;20301;-62
2021/08/04 07:06:09;;;;;;;7.47;4.32;;;;;;;19.38;71.78;96020.03;3601062;39;20434;-60
2021/08/04 07:08:38;;;;;;;6.45;3.65;;;;;;;19.36;71.63;96023.81;3584483;39;20058;-61
2021/08/04 07:11:07;;;;;;;5.03;4.57;;;;;;;19.32;71.08;96016.72;3580735;40;20054;-60
2021/08/04 07:13:34;;;;;;;4.90;4.45;;;;;;;19.33;71.09;96023.63;3573042;39;20050;-60
2021/08/04 07:16:02;;;;;;;7.15;4.75;;;;;;;19.51;71.79;96027.13;3580706;39;20056;-60
2021/08/04 07:18:30;;;;;;;6.40;5.15;;;;;;;19.70;69.52;96020.75;3592072;39;20048;-61
2021/08/04 07:20:58;;;;;;;5.78;5.05;;;;;;;19.88;69.16;96022.34;3579495;40;20367;-60
2021/08/04 07:23:26;;;;;;;5.10;4.60;;;;;;;20.06;68.86;96025.06;3578461;40;20063;-60
2021/08/04 07:25:53;;;;;;;4.50;3.95;;;;;;;20.20;68.41;96017.66;3563933;39;20052;-60
2021/08/04 07:28:21;;;;;;;4.55;3.90;;;;;;;20.37;68.26;96016.88;3580150;39;20062;-60
2021/08/04 07:30:49;;;;;;;4.60;4.20;;;;;;;20.53;67.43;96017.16;3574392;40;20614;-60
2021/08/04 07:33:17;;;;;;;5.30;4.30;;;;;;;20.81;67.00;96013.34;3589551;39;20045;-60
2021/08/04 07:35:44;;;;;;;7.03;3.83;;;;;;;20.95;66.62;96010.50;3582386;39;20044;-60
2021/08/04 07:38:12;;;;;;;7.63;4.00;;;;;;;21.04;66.79;96011.25;3578168;40;20090;-59
2021/08/04 07:40:40;;;;;;;4.38;3.97;;;;;;;21.02;65.96;96008.09;3578842;40;20062;-60
2021/08/04 07:43:07;;;;;;;4.15;3.75;;;;;;;21.18;64.71;96006.47;3579649;39;20157;-60
2021/08/04 07:45:35;;;;;;;7.15;4.05;;;;;;;21.14;64.01;96000.16;3581817;39;20329;-60
2021/08/04 07:48:03;;;;;;;4.95;4.00;;;;;;;21.01;64.35;95995.78;3591556;39;20048;-60
2021/08/04 07:50:31;;;;;;;3.35;2.88;;;;;;;21.08;62.69;95995.28;3588648;39;20062;-61
2021/08/04 07:52:58;;;;;;;3.40;3.10;;;;;;;21.05;63.77;95996.72;3582688;39;20056;-60
2021/08/04 07:55:26;;;;;;;5.72;3.30;;;;;;;21.07;63.72;95997.19;3578402;39;20630;-61
2021/08/04 07:57:54;;;;;;;3.70;3.40;;;;;;;21.02;62.43;96003.53;3578031;39;20044;-60
2021/08/04 08:00:22;;;;;;;3.83;3.22;;;;;;;21.18;62.98;96000.28;3582096;39;20343;-60
2021/08/04 08:02:50;;;;;;;5.05;3.90;;;;;;;21.29;61.81;96000.72;3580549;39;20066;-60
2021/08/04 08:05:19;;;;;;;4.32;3.88;;;;;;;21.12;62.24;96001.59;3567330;39;20056;-59
2021/08/04 08:07:48;;;;;;;4.82;3.40;;;;;;;21.07;62.29;96005.25;3589988;39;20052;-60
2021/08/04 08:10:25;;;;;;;4.32;3.03;;;;;;;21.33;62.66;96002.44;3589627;39;20705;-61
2021/08/04 08:12:52;;;;;;;3.50;3.20;;;;;;;21.54;60.69;95993.66;3586990;39;20060;-59
2021/08/04 08:15:20;;;;;;;3.90;3.25;;;;;;;21.61;61.28;95995.84;3588363;39;20046;-60
2021/08/04 08:17:48;;;;;;;5.15;3.45;;;;;;;21.64;62.17;96000.56;3578242;40;20378;-59
2021/08/04 08:20:17;;;;;;;4.57;3.65;;;;;;;21.72;62.92;96002.44;3588907;39;20048;-60
2021/08/04 08:22:46;;;;;;;3.25;2.95;;;;;;;21.81;62.64;95995.09;3590378;39;20059;-59
2021/08/04 08:25:15;;;;;;;5.82;3.65;;;;;;;22.07;60.71;95990.66;3586883;39;20056;-59
2021/08/04 08:27:44;;;;;;;4.45;3.22;;;;;;;22.03;60.10;95990.53;3587986;39;20058;-59
2021/08/04 08:30:13;;;;;;;3.15;2.95;;;;;;;22.05;61.79;95988.28;3576709;39;20048;-60
2021/08/04 08:32:41;;;;;;;5.05;3.63;;;;;;;22.15;60.82;95989.00;3588655;39;20056;-63
2021/08/04 08:35:10;;;;;;;3.17;2.90;;;;;;;22.24;62.37;95989.72;3580790;39;20050;-60
2021/08/04 08:37:38;;;;;;;3.83;2.70;;;;;;;22.42;60.29;95985.81;3574794;39;20527;-60
2021/08/04 08:40:06;;;;;;;2.70;2.50;;;;;;;22.59;59.29;95989.41;3589480;39;20048;-60
2021/08/04 08:42:34;;;;;;;3.28;2.90;;;;;;;22.77;58.59;95986.56;3590041;39;20052;-61
2021/08/04 08:45:02;;;;;;;2.78;2.58;;;;;;;22.79;57.39;95995.09;3586191;39;20055;-59
2021/08/04 08:47:30;;;;;;;2.75;2.30;;;;;;;22.89;57.64;95981.19;3580128;39;20056;-61
2021/08/04 08:50:00;;;;;;;4.57;2.70;;;;;;;22.91;58.65;95984.34;3590320;39;20048;-60
2021/08/04 08:52:28;;;;;;;4.53;3.13;;;;;;;23.01;57.62;95989.28;3588393;39;20052;-60
2021/08/04 08:55:00;;;;;;;3.00;2.65;;;;;;;23.13;57.53;95985.84;3579870;39;20419;-59
2021/08/04 08:57:28;;;;;;;2.83;2.30;;;;;;;23.10;58.11;95980.31;3577272;39;20079;-60
2021/08/04 08:59:57;;;;;;;2.95;2.67;;;;;;;23.14;56.85;95975.84;3589660;39;20058;-60
2021/08/04 09:02:26;;;;;;;5.60;2.95;;;;;;;23.12;56.83;95972.69;3580248;39;20387;-60
2021/08/04 09:05:06;;;;;;;1.85;1.75;;;;;;;23.21;55.87;95973.41;3571254;39;20593;-60
2021/08/04 09:07:40;;;;;;;2.72;2.20;;;;;;;23.25;56.17;95973.53;3587014;39;20045;-60
2021/08/04 09:10:22;;;;;;;2.75;2.05;;;;;;;23.32;56.17;95976.44;3588572;39;20047;-60
2021/08/04 09:12:50;;;;;;;2.83;1.50;;;;;;;23.47;55.26;95980.34;3602115;39;20055;-60
2021/08/04 09:15:24;;;;;;;2.05;1.90;;;;;;;23.66;55.53;95979.78;3601376;39;20047;-60
2021/08/04 09:18:13;;;;;;;2.00;1.83;;;;;;;23.69;55.71;95973.72;3603652;39;20052;-59
2021/08/04 09:20:53;;;;;;;2.92;2.30;;;;;;;23.66;55.96;95974.38;3600482;39;20056;-59
2021/08/04 09:23:27;;;;;;;3.38;2.50;;;;;;;23.68;55.85;95971.38;3582708;39;20419;-59
2021/08/04 09:26:08;;;;;;;2.30;2.10;;;;;;;23.40;56.00;95978.22;3592175;39;20047;-59
2021/08/04 09:28:55;;;;;;;2.33;2.13;;;;;;;23.12;57.28;95968.13;3592427;39;20047;-60
2021/08/04 09:31:56;;;;;;;2.22;1.92;;;;;;;23.07;56.53;95973.72;3602181;39;20063;-60
2021/08/04 09:34:40;;;;;;;2.60;2.10;;;;;;;22.82;58.60;95960.22;3586488;39;20051;-60
2021/08/04 09:37:09;;;;;;;1.92;1.83;;;;;;;22.73;57.99;95952.25;3586851;39;20435;-60
2021/08/04 09:39:40;;;;;;;2.90;2.10;;;;;;;22.67;58.59;95953.59;3603278;39;20586;-60
2021/08/04 09:42:10;;;;;;;2.03;1.92;;;;;;;22.61;58.56;95962.22;3602182;39;20040;-60
2021/08/04 09:44:55;;;;;;;3.03;1.92;;;;;;;22.35;59.59;95957.84;3592967;39;20052;-60
2021/08/04 09:47:24;;;;;;;2.20;1.95;;;;;;;22.02;58.96;95956.72;3589842;39;20606;-60
2021/08/04 09:50:08;;;;;;;2.10;1.75;;;;;;;22.01;59.81;95957.06;3601461;39;20040;-62
2021/08/04 09:52:50;;;;;;;3.28;1.52;;;;;;;22.25;60.25;95953.66;3604810;39;20046;-60
2021/08/04 09:55:18;;;;;;;2.65;2.33;;;;;;;22.25;59.75;95951.78;3582355;39;20063;-60
2021/08/04 09:57:48;;;;;;;2.40;2.20;;;;;;;22.59;59.10;95951.78;3601830;39;20051;-59
2021/08/04 10:00:22;;;;;;;2.65;2.13;;;;;;;22.91;57.39;95952.06;3585455;39;20057;-59
2021/08/04 10:02:50;;;;;;;2.00;1.80;;;;;;;23.13;56.36;95950.84;3591191;39;20412;-60
2021/08/04 10:05:21;;;;;;;3.22;2.40;;;;;;;23.41;55.88;95958.25;3603338;39;20511;-59
2021/08/04 10:07:59;;;;;;;4.75;2.63;;;;;;;23.70;55.33;95953.75;3593103;39;20058;-59
2021/08/04 10:10:32;;;;;;;2.10;1.88;;;;;;;24.02;54.18;95948.50;3584716;39;20050;-59
2021/08/04 10:13:02;;;;;;;2.05;1.85;;;;;;;24.05;55.14;95945.13;3591044;39;20052;-60
2021/08/04 10:15:33;;;;;;;1.58;1.48;;;;;;;24.00;54.64;95947.28;3587964;39;20075;-59
2021/08/04 10:18:01;;;;;;;2.42;1.85;;;;;;;24.18;53.57;95951.28;3591365;39;20052;-59
2021/08/04 10:20:30;;;;;;;3.80;1.85;;;;;;;24.18;54.07;95948.59;3582657;39;20059;-60
2021/08/04 10:22:58;;;;;;;1.40;1.30;;;;;;;24.16;52.54;95947.34;3583085;39;20313;-60
2021/08/04 10:25:26;;;;;;;2.55;1.70;;;;;;;24.20;52.73;95948.22;3585692;39;20056;-60
2021/08/04 10:27:54;;;;;;;3.45;1.75;;;;;;;24.16;51.33;95948.13;3593131;39;20055;-60
2021/08/04 10:30:24;;;;;;;1.70;1.60;;;;;;;24.05;52.53;95947.81;3589847;39;20044;-60
2021/08/04 10:32:52;;;;;;;1.75;1.48;;;;;;;23.85;52.63;95943.38;3583246;39;20043;-59
2021/08/04 10:35:20;;;;;;;2.38;1.67;;;;;;;23.83;53.91;95951.78;3592749;39;20054;-62
2021/08/04 10:37:49;;;;;;;6.18;1.80;;;;;;;23.90;54.37;95956.59;3592154;39;20047;-60
2021/08/04 10:40:18;;;;;;;1.67;1.58;;;;;;;24.07;53.88;95948.28;3586298;39;20048;-59
2021/08/04 10:42:46;;;;;;;2.03;1.40;;;;;;;24.07;55.18;95948.28;3592058;39;20372;-59
2021/08/04 10:45:23;;;;;;;1.70;1.60;;;;;;;24.18;53.82;95945.09;3594204;39;20043;-59
2021/08/04 10:47:52;;;;;;;1.92;1.73;;;;;;;24.32;53.22;95944.69;3592275;39;20295;-60
2021/08/04 10:50:20;;;;;;;1.73;1.63;;;;;;;24.28;52.29;95941.91;3585645;39;20054;-60
2021/08/04 10:52:57;;;;;;;1.75;1.65;;;;;;;24.15;51.58;95941.19;3593580;39;20054;-60
2021/08/04 10:55:26;;;;;;;2.42;1.77;;;;;;;24.04;52.73;95951.66;3595347;39;20059;-60
2021/08/04 10:58:08;;;;;;;1.88;1.77;;;;;;;23.99;53.92;95957.28;3583000;39;20052;-60
2021/08/04 11:00:37;;;;;;;1.45;1.35;;;;;;;23.75;54.13;95950.03;3592577;39;20047;-60
2021/08/04 11:03:30;;;;;;;3.55;1.98;;;;;;;23.55;54.27;95943.66;3584141;39;20056;-59
2021/08/04 11:06:10;;;;;;;1.52;1.42;;;;;;;23.60;54.70;95941.53;3595061;39;20055;-59
2021/08/04 11:08:40;;;;;;;7.65;1.92;;;;;;;23.59;55.74;95955.34;3585010;39;20048;-59
2021/08/04 11:11:08;;;;;;;4.15;1.90;;;;;;;23.33;55.42;95951.88;3586330;39;20054;-64
2021/08/04 11:13:44;;;;;;;1.55;1.45;;;;;;;23.32;54.66;95947.59;3585971;39;20052;-59
2021/08/04 11:16:33;;;;;;;2.85;1.70;;;;;;;23.17;55.73;95948.28;3586282;39;20052;-59
2021/08/04 11:19:05;;;;;;;2.58;2.08;;;;;;;23.01;55.87;95945.47;3584260;39;20320;-61
2021/08/04 11:21:35;;;;;;;2.17;1.80;;;;;;;23.11;55.21;95947.72;3595074;39;20052;-59
2021/08/04 11:24:03;;;;;;;3.72;2.13;;;;;;;23.16;55.13;95949.41;3586420;39;20051;-60
2021/08/04 11:26:36;;;;;;;2.67;2.25;;;;;;;23.17;55.02;95949.03;3585693;39;20349;-59
2021/08/04 11:29:06;;;;;;;3.08;1.80;;;;;;;22.99;56.04;95945.78;3595191;39;20881;-59
2021/08/04 11:31:34;;;;;;;3.22;1.90;;;;;;;22.91;56.08;95927.06;3595507;39;20048;-59
2021/08/04 11:34:32;;;;;;;2.85;1.75;;;;;;;23.13;55.20;95936.59;3596963;39;20056;-59
2021/08/04 11:37:01;;;;;;;3.60;2.30;;;;;;;23.15;57.12;95934.38;3580328;39;20051;-60
2021/08/04 11:39:29;;;;;;;2.53;1.83;;;;;;;23.13;55.37;95936.59;3587633;39;20048;-60
2021/08/04 11:41:57;;;;;;;2.35;2.13;;;;;;;23.24;55.41;95928.91;3594857;39;20048;-59
2021/08/04 11:44:27;;;;;;;2.72;2.22;;;;;;;23.37;55.94;95932.34;3576607;39;20644;-59